createdAt,value
2017-05-26T00:00:59.348Z,0
2017-05-26T00:02:09.298Z,0
2017-05-26T00:03:21.637Z,0
2017-05-26T00:04:31.901Z,0
2017-05-26T00:05:42.164Z,0
2017-05-26T00:06:52.120Z,0
2017-05-26T00:08:02.387Z,0
2017-05-26T00:09:12.586Z,0
2017-05-26T00:10:22.860Z,0
2017-05-26T00:11:33.121Z,0
2017-05-26T00:12:42.759Z,0
2017-05-26T00:13:52.719Z,0
2017-05-26T00:15:03.236Z,0
2017-05-26T00:16:13.193Z,0
2017-05-26T00:17:23.456Z,0
2017-05-26T00:18:33.099Z,0
2017-05-26T00:19:43.367Z,0
2017-05-26T00:20:53.831Z,0
2017-05-26T00:22:04.100Z,0
2017-05-26T00:23:14.049Z,0
2017-05-26T00:24:24.318Z,0
2017-05-26T00:25:34.271Z,0
2017-05-26T00:26:44.786Z,0
2017-05-26T00:27:54.741Z,0
2017-05-26T00:29:04.695Z,0
2017-05-26T00:30:14.962Z,0
2017-05-26T00:31:25.225Z,0
2017-05-26T00:32:34.845Z,0
2017-05-26T00:33:45.174Z,0
2017-05-26T00:34:55.452Z,0
2017-05-26T00:36:04.774Z,0
2017-05-26T00:37:14.097Z,0
2017-05-26T00:38:24.567Z,0
2017-05-26T00:39:34.517Z,0
2017-05-26T00:40:44.847Z,0
2017-05-26T00:41:55.115Z,0
2017-05-26T00:43:05.389Z,0
2017-05-26T00:44:15.699Z,0
2017-05-26T00:45:25.659Z,0
2017-05-26T00:46:35.940Z,0
2017-05-26T00:47:45.584Z,0
2017-05-26T00:48:55.848Z,0
2017-05-26T00:50:08.052Z,0
2017-05-26T00:51:18.317Z,0
2017-05-26T00:52:28.586Z,0
2017-05-26T00:53:38.848Z,0
2017-05-26T00:54:49.124Z,0
2017-05-26T00:55:59.273Z,0
2017-05-26T00:57:09.217Z,0
2017-05-26T00:58:19.480Z,0
2017-05-26T00:59:29.437Z,0
2017-05-26T01:00:39.710Z,0
2017-05-26T01:01:50.275Z,0
2017-05-26T01:03:00.236Z,0
2017-05-26T01:04:09.870Z,0
2017-05-26T01:05:19.818Z,0
2017-05-26T01:06:29.770Z,0
2017-05-26T01:07:40.286Z,0
2017-05-26T01:08:50.555Z,0
2017-05-26T01:10:00.822Z,0
2017-05-26T01:11:11.082Z,0
2017-05-26T01:12:21.052Z,0
2017-05-26T01:13:31.618Z,0
2017-05-26T01:14:41.572Z,0
2017-05-26T01:15:51.831Z,0
2017-05-26T01:17:02.101Z,0
2017-05-26T01:18:12.379Z,0
2017-05-26T01:19:22.940Z,0
2017-05-26T01:20:33.206Z,0
2017-05-26T01:21:43.155Z,0
2017-05-26T01:22:52.798Z,0
2017-05-26T01:24:03.083Z,0
2017-05-26T01:25:13.286Z,0
2017-05-26T01:26:23.233Z,0
2017-05-26T01:27:33.179Z,0
2017-05-26T01:28:43.453Z,0
2017-05-26T01:29:53.403Z,0
2017-05-26T01:31:05.912Z,0
2017-05-26T01:32:15.860Z,0
2017-05-26T01:33:26.121Z,0
2017-05-26T01:34:36.392Z,0
2017-05-26T01:35:46.036Z,0
2017-05-26T01:36:56.550Z,0
2017-05-26T01:38:06.818Z,0
2017-05-26T01:39:16.775Z,0
2017-05-26T01:40:26.407Z,0
2017-05-26T01:41:36.673Z,0
2017-05-26T01:42:48.830Z,0
2017-05-26T01:43:59.093Z,0
2017-05-26T01:45:09.363Z,0
2017-05-26T01:46:19.626Z,0
2017-05-26T01:47:29.268Z,0
2017-05-26T01:48:39.837Z,0
2017-05-26T01:49:50.110Z,0
2017-05-26T01:51:00.379Z,0
2017-05-26T01:52:10.332Z,0
2017-05-26T01:53:20.598Z,0
2017-05-26T01:54:31.118Z,0
2017-05-26T01:55:41.063Z,0
2017-05-26T01:56:51.332Z,0
2017-05-26T01:58:00.970Z,0
2017-05-26T01:59:11.289Z,0
2017-05-26T02:00:21.281Z,0
2017-05-26T02:01:31.547Z,0
2017-05-26T02:02:41.818Z,0
2017-05-26T02:03:51.773Z,0
2017-05-26T02:05:01.410Z,0
2017-05-26T02:06:11.872Z,5
2017-05-26T02:07:21.825Z,5
2017-05-26T02:08:32.095Z,5
2017-05-26T02:09:42.363Z,5
2017-05-26T02:10:52.634Z,5
2017-05-26T02:12:03.102Z,5
2017-05-26T02:13:13.048Z,5
2017-05-26T02:14:22.685Z,5
2017-05-26T02:15:32.632Z,10
2017-05-26T02:16:42.897Z,10
2017-05-26T02:17:53.466Z,10
2017-05-26T02:19:03.418Z,10
2017-05-26T02:20:13.685Z,10
2017-05-26T02:21:23.639Z,10
2017-05-26T02:22:33.897Z,15
2017-05-26T02:23:44.460Z,10
2017-05-26T02:24:54.723Z,10
2017-05-26T02:26:04.676Z,10
2017-05-26T02:27:14.628Z,10
2017-05-26T02:28:24.337Z,10
2017-05-26T02:29:34.803Z,10
2017-05-26T02:30:44.760Z,10
2017-05-26T02:31:55.024Z,15
2017-05-26T02:33:05.291Z,15
2017-05-26T02:34:15.555Z,15
2017-05-26T02:35:26.020Z,15
2017-05-26T02:36:35.976Z,15
2017-05-26T02:37:45.931Z,20
2017-05-26T02:38:56.202Z,20
2017-05-26T02:40:06.467Z,20
2017-05-26T02:41:16.770Z,20
2017-05-26T02:42:26.419Z,20
2017-05-26T02:43:36.687Z,20
2017-05-26T02:44:46.958Z,25
2017-05-26T02:45:57.222Z,30
2017-05-26T02:47:07.163Z,30
2017-05-26T02:48:17.426Z,30
2017-05-26T02:49:26.439Z,30
2017-05-26T02:50:36.701Z,35
2017-05-26T02:51:46.024Z,30
2017-05-26T02:52:56.487Z,30
2017-05-26T02:54:06.752Z,30
2017-05-26T02:55:16.392Z,30
2017-05-26T02:56:26.345Z,30
2017-05-26T02:57:36.613Z,30
2017-05-26T02:58:47.174Z,30
2017-05-26T02:59:57.446Z,35
2017-05-26T03:01:07.708Z,35
2017-05-26T03:02:17.661Z,35
2017-05-26T03:03:27.617Z,35
2017-05-26T03:04:38.084Z,35
2017-05-26T03:05:48.037Z,40
2017-05-26T03:06:57.987Z,40
2017-05-26T03:08:07.935Z,40
2017-05-26T03:09:17.893Z,40
2017-05-26T03:10:28.041Z,40
2017-05-26T03:11:37.987Z,40
2017-05-26T03:12:47.943Z,45
2017-05-26T03:13:58.207Z,45
2017-05-26T03:15:08.475Z,45
2017-05-26T03:16:20.365Z,45
2017-05-26T03:17:30.630Z,45
2017-05-26T03:18:40.889Z,50
2017-05-26T03:19:51.151Z,50
2017-05-26T03:21:01.106Z,50
2017-05-26T03:22:10.679Z,50
2017-05-26T03:23:20.627Z,50
2017-05-26T03:24:30.579Z,50
2017-05-26T03:25:40.841Z,55
2017-05-26T03:26:51.160Z,55
2017-05-26T03:28:01.417Z,55
2017-05-26T03:29:11.373Z,55
2017-05-26T03:30:21.009Z,55
2017-05-26T03:31:30.996Z,55
2017-05-26T03:32:40.951Z,55
2017-05-26T03:33:51.523Z,60
2017-05-26T03:35:01.789Z,70
2017-05-26T03:36:12.057Z,65
2017-05-26T03:37:22.011Z,70
2017-05-26T03:38:32.272Z,75
2017-05-26T03:39:42.482Z,80
2017-05-26T03:40:52.750Z,85
2017-05-26T03:42:03.007Z,85
2017-05-26T03:43:12.652Z,85
2017-05-26T03:44:21.659Z,85
2017-05-26T03:45:31.601Z,90
2017-05-26T03:46:41.563Z,90
2017-05-26T03:47:51.522Z,90
2017-05-26T03:49:01.475Z,90
2017-05-26T03:50:11.737Z,90
2017-05-26T03:51:21.937Z,95
2017-05-26T03:52:32.200Z,100
2017-05-26T03:53:42.469Z,105
2017-05-26T03:54:52.742Z,105
2017-05-26T03:56:03.011Z,100
2017-05-26T03:57:13.655Z,100
2017-05-26T03:58:23.933Z,100
2017-05-26T03:59:33.585Z,100
2017-05-26T04:00:43.852Z,95
2017-05-26T04:01:54.113Z,90
2017-05-26T04:03:04.588Z,95
2017-05-26T04:04:14.858Z,100
2017-05-26T04:05:25.122Z,105
2017-05-26T04:06:35.450Z,105
2017-05-26T04:07:45.406Z,105
2017-05-26T04:08:56.023Z,105
2017-05-26T04:10:06.293Z,110
2017-05-26T04:11:15.933Z,115
2017-05-26T04:12:26.205Z,115
2017-05-26T04:13:36.476Z,115
2017-05-26T04:14:46.416Z,115
2017-05-26T04:15:56.682Z,115
2017-05-26T04:17:06.636Z,110
2017-05-26T04:18:16.277Z,115
2017-05-26T04:19:26.238Z,110
2017-05-26T04:20:36.757Z,100
2017-05-26T04:21:47.028Z,95
2017-05-26T04:22:56.982Z,90
2017-05-26T04:24:06.929Z,90
2017-05-26T04:25:17.193Z,90
2017-05-26T04:26:29.658Z,105
2017-05-26T04:27:39.929Z,115
2017-05-26T04:28:49.881Z,125
2017-05-26T04:30:00.153Z,135
2017-05-26T04:31:10.108Z,145
2017-05-26T04:32:20.686Z,150
2017-05-26T04:33:30.656Z,150
2017-05-26T04:34:40.927Z,155
2017-05-26T04:35:51.200Z,155
2017-05-26T04:37:01.466Z,160
2017-05-26T04:38:13.938Z,155
2017-05-26T04:39:23.953Z,155
2017-05-26T04:40:33.588Z,160
2017-05-26T04:41:43.538Z,160
2017-05-26T04:42:53.495Z,170
2017-05-26T04:44:04.069Z,170
2017-05-26T04:45:14.335Z,170
2017-05-26T04:46:24.285Z,175
2017-05-26T04:47:34.544Z,185
2017-05-26T04:48:44.185Z,185
2017-05-26T04:49:54.699Z,185
2017-05-26T04:51:04.967Z,185
2017-05-26T04:52:14.916Z,190
2017-05-26T04:53:24.919Z,195
2017-05-26T04:54:35.180Z,195
2017-05-26T04:55:45.446Z,195
2017-05-26T04:56:55.716Z,195
2017-05-26T04:58:05.984Z,195
2017-05-26T04:59:16.256Z,195
2017-05-26T05:00:26.526Z,190
2017-05-26T05:01:36.477Z,180
2017-05-26T05:02:46.746Z,175
2017-05-26T05:03:57.023Z,180
2017-05-26T05:05:06.976Z,190
2017-05-26T05:06:17.240Z,200
2017-05-26T05:07:27.505Z,205
2017-05-26T05:08:36.516Z,205
2017-05-26T05:09:46.472Z,205
2017-05-26T05:10:56.423Z,210
2017-05-26T05:12:06.383Z,220
2017-05-26T05:13:16.648Z,225
2017-05-26T05:14:26.613Z,220
2017-05-26T05:15:36.561Z,225
2017-05-26T05:16:46.821Z,225
2017-05-26T05:17:57.102Z,245
2017-05-26T05:19:07.051Z,245
2017-05-26T05:20:17.316Z,255
2017-05-26T05:21:26.950Z,250
2017-05-26T05:22:37.222Z,250
2017-05-26T05:23:47.514Z,260
2017-05-26T05:24:57.466Z,260
2017-05-26T05:26:07.422Z,260
2017-05-26T05:27:17.401Z,270
2017-05-26T05:28:27.357Z,285
2017-05-26T05:29:37.315Z,290
2017-05-26T05:30:47.274Z,310
2017-05-26T05:31:57.545Z,320
2017-05-26T05:33:07.501Z,300
2017-05-26T05:34:17.140Z,300
2017-05-26T05:35:27.403Z,320
2017-05-26T05:36:37.671Z,335
2017-05-26T05:37:47.945Z,325
2017-05-26T05:38:58.233Z,305
2017-05-26T05:40:08.494Z,305
2017-05-26T05:41:18.134Z,285
2017-05-26T05:42:28.090Z,280
2017-05-26T05:43:38.359Z,285
2017-05-26T05:44:48.627Z,285
2017-05-26T05:45:58.894Z,280
2017-05-26T05:47:08.842Z,280
2017-05-26T05:48:18.798Z,280
2017-05-26T05:49:29.065Z,270
2017-05-26T05:50:38.393Z,265
2017-05-26T05:51:48.665Z,265
2017-05-26T05:52:58.935Z,255
2017-05-26T05:54:08.893Z,250
2017-05-26T05:55:18.534Z,265
2017-05-26T05:56:28.494Z,270
2017-05-26T05:57:38.768Z,280
2017-05-26T05:58:49.041Z,265
2017-05-26T05:59:59.315Z,255
2017-05-26T06:01:09.581Z,260
2017-05-26T06:02:19.526Z,255
2017-05-26T06:03:29.794Z,265
2017-05-26T06:04:40.060Z,255
2017-05-26T06:05:50.015Z,265
2017-05-26T06:07:00.279Z,265
2017-05-26T06:08:09.913Z,265
2017-05-26T06:09:19.561Z,265
2017-05-26T06:10:29.512Z,280
2017-05-26T06:11:39.817Z,285
2017-05-26T06:12:50.101Z,290
2017-05-26T06:14:00.369Z,300
2017-05-26T06:15:10.640Z,320
2017-05-26T06:16:20.913Z,305
2017-05-26T06:17:30.860Z,305
2017-05-26T06:18:40.814Z,285
2017-05-26T06:19:51.079Z,275
2017-05-26T06:21:01.351Z,260
2017-05-26T06:22:11.311Z,255
2017-05-26T06:23:21.581Z,255
2017-05-26T06:24:31.542Z,250
2017-05-26T06:25:41.803Z,245
2017-05-26T06:26:51.760Z,240
2017-05-26T06:28:01.399Z,245
2017-05-26T06:29:11.361Z,255
2017-05-26T06:30:21.323Z,265
2017-05-26T06:31:31.605Z,290
2017-05-26T06:32:41.558Z,315
2017-05-26T06:33:51.831Z,340
2017-05-26T06:35:01.476Z,360
2017-05-26T06:36:11.439Z,365
2017-05-26T06:37:21.716Z,375
2017-05-26T06:38:31.988Z,380
2017-05-26T06:39:42.262Z,375
2017-05-26T06:40:52.528Z,380
2017-05-26T06:42:02.808Z,380
2017-05-26T06:43:13.073Z,385
2017-05-26T06:44:23.030Z,385
2017-05-26T06:45:33.299Z,380
2017-05-26T06:46:43.256Z,360
2017-05-26T06:47:53.535Z,320
2017-05-26T06:49:03.498Z,305
2017-05-26T06:50:13.773Z,310
2017-05-26T06:51:24.042Z,340
2017-05-26T06:52:34.303Z,365
2017-05-26T06:53:44.581Z,375
2017-05-26T06:54:54.847Z,375
2017-05-26T06:56:05.117Z,375
2017-05-26T06:57:14.441Z,375
2017-05-26T06:58:24.396Z,385
2017-05-26T06:59:34.674Z,390
2017-05-26T07:00:44.313Z,395
2017-05-26T07:01:54.589Z,395
2017-05-26T07:03:04.857Z,385
2017-05-26T07:04:14.816Z,360
2017-05-26T07:05:24.147Z,355
2017-05-26T07:06:34.413Z,350
2017-05-26T07:07:44.379Z,330
2017-05-26T07:08:54.647Z,325
2017-05-26T07:10:04.980Z,340
2017-05-26T07:11:14.939Z,375
2017-05-26T07:12:25.217Z,405
2017-05-26T07:13:35.172Z,405
2017-05-26T07:14:45.443Z,395
2017-05-26T07:15:55.715Z,350
2017-05-26T07:17:05.684Z,340
2017-05-26T07:18:15.957Z,345
2017-05-26T07:19:26.234Z,370
2017-05-26T07:20:36.501Z,395
2017-05-26T07:21:45.882Z,405
2017-05-26T07:22:56.157Z,410
2017-05-26T07:24:06.115Z,415
2017-05-26T07:25:16.070Z,420
2017-05-26T07:26:26.030Z,435
2017-05-26T07:27:36.300Z,445
2017-05-26T07:28:46.257Z,440
2017-05-26T07:29:55.899Z,430
2017-05-26T07:31:05.856Z,425
2017-05-26T07:32:15.502Z,420
2017-05-26T07:33:25.772Z,415
2017-05-26T07:34:35.732Z,415
2017-05-26T07:35:45.689Z,420
2017-05-26T07:36:55.965Z,425
2017-05-26T07:38:05.924Z,430
2017-05-26T07:39:16.199Z,440
2017-05-26T07:40:26.468Z,445
2017-05-26T07:41:36.422Z,455
2017-05-26T07:42:46.696Z,465
2017-05-26T07:43:56.971Z,465
2017-05-26T07:45:06.306Z,465
2017-05-26T07:46:16.266Z,430
2017-05-26T07:47:26.544Z,385
2017-05-26T07:48:36.819Z,335
2017-05-26T07:49:47.101Z,295
2017-05-26T07:50:57.376Z,255
2017-05-26T07:52:07.336Z,215
2017-05-26T07:53:16.975Z,200
2017-05-26T07:54:26.938Z,230
2017-05-26T07:55:37.207Z,210
2017-05-26T07:56:47.474Z,200
2017-05-26T07:57:57.758Z,240
2017-05-26T07:59:08.026Z,235
2017-05-26T08:00:17.984Z,200
2017-05-26T08:01:27.936Z,200
2017-05-26T08:02:37.894Z,195
2017-05-26T08:03:47.545Z,195
2017-05-26T08:04:57.817Z,195
2017-05-26T08:06:07.771Z,205
2017-05-26T08:07:18.045Z,230
2017-05-26T08:08:28.318Z,270
2017-05-26T08:09:38.594Z,280
2017-05-26T08:10:48.555Z,275
2017-05-26T08:11:58.824Z,270
2017-05-26T08:13:08.466Z,275
2017-05-26T08:14:18.738Z,285
2017-05-26T08:15:28.384Z,295
2017-05-26T08:16:38.662Z,295
2017-05-26T08:17:48.934Z,300
2017-05-26T08:18:58.578Z,345
2017-05-26T08:20:08.531Z,365
2017-05-26T08:21:18.807Z,375
2017-05-26T08:22:28.832Z,395
2017-05-26T08:23:38.785Z,400
2017-05-26T08:24:49.059Z,400
2017-05-26T08:25:59.325Z,385
2017-05-26T08:27:09.284Z,365
2017-05-26T08:28:19.557Z,355
2017-05-26T08:29:29.517Z,340
2017-05-26T08:30:39.812Z,335
2017-05-26T08:31:50.087Z,350
2017-05-26T08:33:00.376Z,295
2017-05-26T08:34:10.333Z,265
2017-05-26T08:35:20.301Z,240
2017-05-26T08:36:30.571Z,245
2017-05-26T08:37:40.218Z,235
2017-05-26T08:38:50.180Z,225
2017-05-26T08:40:00.141Z,225
2017-05-26T08:41:10.099Z,220
2017-05-26T08:42:20.374Z,220
2017-05-26T08:43:30.330Z,220
2017-05-26T08:44:40.283Z,225
2017-05-26T08:45:50.547Z,205
2017-05-26T08:47:00.189Z,220
2017-05-26T08:48:10.150Z,220
2017-05-26T08:49:20.419Z,225
2017-05-26T08:50:30.694Z,225
2017-05-26T08:51:40.968Z,225
2017-05-26T08:52:50.924Z,230
2017-05-26T08:54:00.884Z,235
2017-05-26T08:55:11.149Z,235
2017-05-26T08:56:20.794Z,235
2017-05-26T08:57:31.080Z,240
2017-05-26T08:58:41.340Z,250
2017-05-26T08:59:51.306Z,260
2017-05-26T09:01:01.264Z,265
2017-05-26T09:02:11.537Z,270
2017-05-26T09:03:21.827Z,235
2017-05-26T09:04:31.782Z,265
2017-05-26T09:05:42.046Z,255
2017-05-26T09:06:52.002Z,255
2017-05-26T09:08:02.272Z,255
2017-05-26T09:09:12.545Z,265
2017-05-26T09:10:22.826Z,275
2017-05-26T09:11:32.475Z,285
2017-05-26T09:12:42.745Z,295
2017-05-26T09:13:52.703Z,295
2017-05-26T09:15:02.977Z,295
2017-05-26T09:16:12.621Z,295
2017-05-26T09:17:22.263Z,290
2017-05-26T09:18:32.226Z,295
2017-05-26T09:19:42.492Z,300
2017-05-26T09:20:52.453Z,300
2017-05-26T09:22:02.727Z,290
2017-05-26T09:23:12.996Z,285
2017-05-26T09:24:22.961Z,265
2017-05-26T09:25:33.232Z,250
2017-05-26T09:26:43.511Z,240
2017-05-26T09:27:53.783Z,220
2017-05-26T09:29:03.742Z,235
2017-05-26T09:30:13.752Z,235
2017-05-26T09:31:24.047Z,230
2017-05-26T09:32:34.315Z,230
2017-05-26T09:33:44.588Z,230
2017-05-26T09:34:54.555Z,230
2017-05-26T09:36:04.822Z,230
2017-05-26T09:37:14.778Z,235
2017-05-26T09:38:24.743Z,235
2017-05-26T09:39:35.037Z,235
2017-05-26T09:40:44.991Z,240
2017-05-26T09:41:54.955Z,240
2017-05-26T09:43:05.224Z,240
2017-05-26T09:44:15.187Z,240
2017-05-26T09:45:25.461Z,240
2017-05-26T09:46:35.414Z,235
2017-05-26T09:47:45.692Z,240
2017-05-26T09:48:55.965Z,245
2017-05-26T09:50:05.615Z,245
2017-05-26T09:51:15.567Z,245
2017-05-26T09:52:25.841Z,245
2017-05-26T09:53:36.114Z,240
2017-05-26T09:54:46.384Z,240
2017-05-26T09:55:56.656Z,245
2017-05-26T09:57:06.614Z,240
2017-05-26T09:58:16.586Z,240
2017-05-26T09:59:26.231Z,240
2017-05-26T10:00:36.190Z,240
2017-05-26T10:01:46.466Z,245
2017-05-26T10:02:56.742Z,245
2017-05-26T10:04:07.017Z,245
2017-05-26T10:05:17.047Z,245
2017-05-26T10:06:26.687Z,245
2017-05-26T10:07:36.955Z,245
2017-05-26T10:08:46.924Z,250
2017-05-26T10:09:57.202Z,250
2017-05-26T10:11:07.474Z,250
2017-05-26T10:12:17.747Z,250
2017-05-26T10:13:27.401Z,250
2017-05-26T10:14:37.687Z,250
2017-05-26T10:15:47.643Z,255
2017-05-26T10:16:57.928Z,255
2017-05-26T10:18:08.203Z,255
2017-05-26T10:19:18.164Z,260
2017-05-26T10:20:28.121Z,260
2017-05-26T10:21:38.395Z,260
2017-05-26T10:22:48.670Z,265
2017-05-26T10:23:58.948Z,265
2017-05-26T10:25:08.596Z,265
2017-05-26T10:26:18.870Z,265
2017-05-26T10:27:29.143Z,265
2017-05-26T10:28:39.417Z,265
2017-05-26T10:29:49.689Z,270
2017-05-26T10:30:59.967Z,265
2017-05-26T10:32:10.245Z,270
2017-05-26T10:33:19.573Z,270
2017-05-26T10:34:29.530Z,270
2017-05-26T10:35:39.796Z,275
2017-05-26T10:36:50.067Z,275
2017-05-26T10:38:00.037Z,275
2017-05-26T10:39:09.370Z,280
2017-05-26T10:40:19.331Z,285
2017-05-26T10:41:29.605Z,285
2017-05-26T10:42:39.888Z,290
2017-05-26T10:43:49.225Z,290
2017-05-26T10:44:59.180Z,290
2017-05-26T10:46:09.141Z,295
2017-05-26T10:47:19.413Z,295
2017-05-26T10:48:29.687Z,305
2017-05-26T10:49:39.958Z,300
2017-05-26T10:50:50.226Z,300
2017-05-26T10:52:00.574Z,310
2017-05-26T10:53:10.541Z,305
2017-05-26T10:54:20.508Z,300
2017-05-26T10:55:30.466Z,300
2017-05-26T10:56:40.431Z,300
2017-05-26T10:57:50.392Z,300
2017-05-26T10:59:00.661Z,300
2017-05-26T11:00:10.313Z,295
2017-05-26T11:01:20.586Z,295
2017-05-26T11:02:30.227Z,295
2017-05-26T11:03:40.505Z,300
2017-05-26T11:04:50.464Z,290
2017-05-26T11:06:00.737Z,290
2017-05-26T11:07:10.699Z,295
2017-05-26T11:08:20.978Z,295
2017-05-26T11:09:31.250Z,295
2017-05-26T11:10:41.520Z,295
2017-05-26T11:11:51.161Z,300
2017-05-26T11:13:01.121Z,300
2017-05-26T11:14:10.775Z,300
2017-05-26T11:15:20.737Z,305
2017-05-26T11:16:30.694Z,305
2017-05-26T11:17:40.337Z,305
2017-05-26T11:18:50.300Z,305
2017-05-26T11:20:00.260Z,315
2017-05-26T11:21:10.219Z,315
2017-05-26T11:22:20.485Z,315
2017-05-26T11:23:30.772Z,320
2017-05-26T11:24:41.049Z,325
2017-05-26T11:25:51.317Z,325
2017-05-26T11:27:00.970Z,325
2017-05-26T11:28:11.257Z,330
2017-05-26T11:29:21.222Z,380
2017-05-26T11:30:31.495Z,1340
2017-05-26T11:31:41.770Z,2660
2017-05-26T11:32:51.742Z,2760
2017-05-26T11:34:02.016Z,2930
2017-05-26T11:35:11.983Z,3090
2017-05-26T11:36:22.262Z,2950
2017-05-26T11:37:32.551Z,2695
2017-05-26T11:38:42.514Z,2485
2017-05-26T11:39:52.476Z,2275
2017-05-26T11:41:02.749Z,2135
2017-05-26T11:42:13.027Z,2875
2017-05-26T11:43:23.311Z,3445
2017-05-26T11:44:33.590Z,3395
2017-05-26T11:45:43.864Z,3395
2017-05-26T11:46:54.147Z,3355
2017-05-26T11:48:04.458Z,3120
2017-05-26T11:49:14.746Z,3150
2017-05-26T11:50:24.402Z,3220
2017-05-26T11:51:34.701Z,3185
2017-05-26T11:52:44.994Z,3240
2017-05-26T11:53:54.963Z,3100
2017-05-26T11:55:05.247Z,3115
2017-05-26T11:56:14.594Z,2360
2017-05-26T11:57:23.933Z,2385
2017-05-26T11:58:34.217Z,2705
2017-05-26T11:59:44.190Z,1680
2017-05-26T12:00:54.211Z,3230
2017-05-26T12:02:04.492Z,2895
2017-05-26T12:03:14.468Z,3040
2017-05-26T12:04:24.754Z,3190
2017-05-26T12:05:34.721Z,3380
2017-05-26T12:06:45.013Z,3255
2017-05-26T12:07:54.983Z,2915
2017-05-26T12:09:05.279Z,2735
2017-05-26T12:10:15.613Z,2780
2017-05-26T12:11:25.598Z,3065
2017-05-26T12:12:35.885Z,3205
2017-05-26T12:13:45.856Z,3000
2017-05-26T12:14:54.885Z,3070
2017-05-26T12:16:04.540Z,3215
2017-05-26T12:17:14.513Z,3270
2017-05-26T12:18:24.488Z,3130
2017-05-26T12:19:35.075Z,3020
2017-05-26T12:20:45.371Z,3075
2017-05-26T12:21:55.661Z,3230
2017-05-26T12:23:05.944Z,3205
2017-05-26T12:24:16.225Z,3220
2017-05-26T12:25:26.509Z,3150
2017-05-26T12:26:36.792Z,3145
2017-05-26T12:27:46.773Z,3030
2017-05-26T12:28:57.319Z,3030
2017-05-26T12:30:07.322Z,2915
2017-05-26T12:31:19.663Z,2880
2017-05-26T12:32:29.956Z,2715
2017-05-26T12:33:40.251Z,2795
2017-05-26T12:34:50.544Z,2875
2017-05-26T12:36:00.519Z,2810
2017-05-26T12:37:10.814Z,2885
2017-05-26T12:38:21.098Z,2750
2017-05-26T12:39:31.382Z,2805
2017-05-26T12:40:41.352Z,2725
2017-05-26T12:41:51.637Z,2320
2017-05-26T12:43:01.927Z,2470
2017-05-26T12:44:11.590Z,2330
2017-05-26T12:45:21.930Z,2235
2017-05-26T12:46:31.902Z,2100
2017-05-26T12:47:42.190Z,2065
2017-05-26T12:48:52.168Z,2045
2017-05-26T12:50:02.449Z,2005
2017-05-26T12:51:12.112Z,1985
2017-05-26T12:52:22.400Z,1995
2017-05-26T12:53:32.690Z,1965
2017-05-26T12:54:42.983Z,1995
2017-05-26T12:55:52.961Z,2355
2017-05-26T12:57:02.933Z,2545
2017-05-26T12:58:12.593Z,2405
2017-05-26T12:59:22.260Z,2620
2017-05-26T13:00:32.547Z,3430
2017-05-26T13:01:42.838Z,3355
2017-05-26T13:02:53.143Z,2860
2017-05-26T13:04:03.439Z,3060
2017-05-26T13:05:13.416Z,3485
2017-05-26T13:06:23.708Z,3600
2017-05-26T13:07:33.996Z,880
2017-05-26T13:08:44.287Z,1025
2017-05-26T13:09:54.578Z,1205
2017-05-26T13:11:04.871Z,3800
2017-05-26T13:12:14.534Z,3430
2017-05-26T13:13:23.622Z,3660
2017-05-26T13:14:33.600Z,3345
2017-05-26T13:15:43.892Z,3360
2017-05-26T13:16:53.862Z,3470
2017-05-26T13:18:04.154Z,3735
2017-05-26T13:19:14.141Z,4095
2017-05-26T13:20:23.488Z,4080
2017-05-26T13:21:33.465Z,3975
2017-05-26T13:22:43.437Z,3770
2017-05-26T13:23:53.731Z,3560
2017-05-26T13:25:03.402Z,1215
2017-05-26T13:26:13.691Z,3715
2017-05-26T13:27:23.679Z,3555
2017-05-26T13:28:33.658Z,3685
2017-05-26T13:29:43.630Z,3685
2017-05-26T13:30:53.614Z,3640
2017-05-26T13:32:03.588Z,3655
2017-05-26T13:33:13.248Z,3780
2017-05-26T13:34:23.221Z,3695
2017-05-26T13:35:33.508Z,3515
2017-05-26T13:36:43.480Z,3460
2017-05-26T13:37:53.766Z,3550
2017-05-26T13:39:03.745Z,3785
2017-05-26T13:40:13.724Z,3570
2017-05-26T13:41:23.693Z,3255
2017-05-26T13:42:34.058Z,3555
2017-05-26T13:43:44.344Z,3800
2017-05-26T13:44:54.636Z,3600
2017-05-26T13:46:04.298Z,3490
2017-05-26T13:47:14.272Z,3480
2017-05-26T13:48:23.623Z,3585
2017-05-26T13:49:33.598Z,3685
2017-05-26T13:50:43.888Z,2540
2017-05-26T13:51:53.859Z,3715
2017-05-26T13:53:04.152Z,3700
2017-05-26T13:54:14.439Z,715
2017-05-26T13:55:24.103Z,3610
2017-05-26T13:56:34.079Z,3550
2017-05-26T13:57:44.369Z,3650
2017-05-26T13:58:54.655Z,3530
2017-05-26T14:00:04.633Z,585
2017-05-26T14:01:14.926Z,820
2017-05-26T14:02:24.897Z,930
2017-05-26T14:03:35.181Z,630
2017-05-26T14:04:45.469Z,3335
2017-05-26T14:05:55.756Z,2780
2017-05-26T14:07:06.037Z,835
2017-05-26T14:08:16.324Z,1585
2017-05-26T14:09:26.294Z,980
2017-05-26T14:10:36.577Z,3545
2017-05-26T14:11:46.547Z,3570
2017-05-26T14:12:56.514Z,3800
2017-05-26T14:14:06.171Z,965
2017-05-26T14:15:15.888Z,3570
2017-05-26T14:16:26.177Z,3375
2017-05-26T14:17:36.464Z,3355
2017-05-26T14:18:46.805Z,3385
2017-05-26T14:19:56.457Z,3315
2017-05-26T14:21:06.125Z,885
2017-05-26T14:22:15.787Z,3315
2017-05-26T14:23:26.084Z,3175
2017-05-26T14:24:36.371Z,3190
2017-05-26T14:25:45.715Z,3165
2017-05-26T14:26:55.687Z,3275
2017-05-26T14:28:05.344Z,3305
2017-05-26T14:29:15.641Z,3115
2017-05-26T14:30:25.615Z,2025
2017-05-26T14:31:35.274Z,1585
2017-05-26T14:32:45.561Z,3335
2017-05-26T14:33:55.228Z,3405
2017-05-26T14:35:04.881Z,1215
2017-05-26T14:36:14.539Z,2810
2017-05-26T14:37:24.198Z,1175
2017-05-26T14:38:34.490Z,3115
2017-05-26T14:39:44.776Z,1150
2017-05-26T14:40:55.059Z,3390
2017-05-26T14:42:05.054Z,1210
2017-05-26T14:43:15.337Z,2750
2017-05-26T14:44:25.622Z,2965
2017-05-26T14:45:35.914Z,3275
2017-05-26T14:46:45.890Z,1115
2017-05-26T14:47:56.178Z,1515
2017-05-26T14:49:06.148Z,930
2017-05-26T14:50:16.119Z,935
2017-05-26T14:51:26.100Z,1175
2017-05-26T14:52:36.075Z,2605
2017-05-26T14:53:46.364Z,2830
2017-05-26T14:54:56.331Z,3385
2017-05-26T14:56:05.986Z,1230
2017-05-26T14:57:15.959Z,3360
2017-05-26T14:58:26.245Z,1750
2017-05-26T14:59:36.529Z,2065
2017-05-26T15:00:46.814Z,2160
2017-05-26T15:01:57.103Z,3290
2017-05-26T15:03:07.388Z,2465
2017-05-26T15:04:17.356Z,3125
2017-05-26T15:05:27.014Z,3165
2017-05-26T15:06:37.300Z,2995
2017-05-26T15:07:47.273Z,1670
2017-05-26T15:08:57.553Z,3280
2017-05-26T15:10:07.210Z,3385
2017-05-26T15:11:17.491Z,1355
2017-05-26T15:12:27.522Z,675
2017-05-26T15:13:37.803Z,655
2017-05-26T15:14:48.086Z,3185
2017-05-26T15:15:57.743Z,705
2017-05-26T15:17:08.025Z,2970
2017-05-26T15:18:17.995Z,650
2017-05-26T15:19:27.959Z,2660
2017-05-26T15:20:37.612Z,2085
2017-05-26T15:21:47.271Z,590
2017-05-26T15:22:57.561Z,560
2017-05-26T15:24:07.221Z,1025
2017-05-26T15:25:17.193Z,2715
2017-05-26T15:26:27.476Z,2910
2017-05-26T15:27:37.129Z,2925
2017-05-26T15:28:47.095Z,3030
2017-05-26T15:29:57.375Z,2810
2017-05-26T15:31:07.342Z,2505
2017-05-26T15:32:17.317Z,2560
2017-05-26T15:33:27.285Z,2500
2017-05-26T15:34:37.565Z,2370
2017-05-26T15:35:47.853Z,2120
2017-05-26T15:36:58.153Z,2625
2017-05-26T15:38:08.437Z,555
2017-05-26T15:39:18.725Z,610
2017-05-26T15:40:28.697Z,1500
2017-05-26T15:41:38.668Z,450
2017-05-26T15:42:48.642Z,485
2017-05-26T15:43:58.610Z,475
2017-05-26T15:45:08.580Z,555
2017-05-26T15:46:18.864Z,2275
2017-05-26T15:47:29.149Z,2650
2017-05-26T15:48:39.118Z,1305
2017-05-26T15:49:49.395Z,2550
2017-05-26T15:50:59.368Z,2510
2017-05-26T15:52:09.027Z,2340
2017-05-26T15:53:18.992Z,2300
2017-05-26T15:54:29.265Z,2355
2017-05-26T15:55:39.230Z,2565
2017-05-26T15:56:49.199Z,2360
2017-05-26T15:57:59.486Z,2225
2017-05-26T15:59:09.774Z,1835
2017-05-26T16:00:19.742Z,1660
2017-05-26T16:01:29.706Z,1635
2017-05-26T16:02:39.995Z,1465
2017-05-26T16:03:50.282Z,2030
2017-05-26T16:05:00.570Z,1965
2017-05-26T16:06:10.862Z,2130
2017-05-26T16:07:21.165Z,2520
2017-05-26T16:08:31.456Z,2500
2017-05-26T16:09:41.431Z,2615